createdAt,value
2019-05-02T00:02:13.265Z,8.66
2019-05-02T00:04:59.241Z,8.64
2019-05-02T00:07:45.375Z,8.61
2019-05-02T00:10:31.775Z,8.61
2019-05-02T00:13:18.906Z,8.53
2019-05-02T00:16:09.091Z,8.53
2019-05-02T00:18:53.335Z,8.48
2019-05-02T00:21:42.957Z,8.43
2019-05-02T00:24:27.840Z,8.44
2019-05-02T00:27:13.880Z,8.46
2019-05-02T00:30:00.397Z,8.44
2019-05-02T00:32:46.640Z,8.47
2019-05-02T00:35:32.930Z,8.42
2019-05-02T00:38:19.121Z,8.40
2019-05-02T00:41:04.941Z,8.35
2019-05-02T00:43:51.131Z,8.33
2019-05-02T00:46:37.315Z,8.40
2019-05-02T00:49:23.515Z,8.36
2019-05-02T00:52:09.520Z,8.28
2019-05-02T00:54:58.725Z,8.19
2019-05-02T00:57:43.764Z,8.26
2019-05-02T01:00:32.485Z,8.27
2019-05-02T01:03:18.883Z,8.23
2019-05-02T01:06:04.900Z,8.19
2019-05-02T01:08:51.010Z,8.14
2019-05-02T01:11:37.168Z,8.16
2019-05-02T01:14:27.171Z,8.14
2019-05-02T01:17:11.280Z,8.06
2019-05-02T01:19:57.565Z,8.00
2019-05-02T01:22:47.083Z,7.96
2019-05-02T01:25:31.695Z,7.92
2019-05-02T01:28:36.050Z,7.91
2019-05-02T01:31:31.960Z,7.85
2019-05-02T01:34:33.890Z,7.82
2019-05-02T01:37:24.280Z,7.85
2019-05-02T01:40:12.943Z,7.77
2019-05-02T01:43:03.971Z,7.82
2019-05-02T01:45:50.136Z,7.68
2019-05-02T01:48:40.172Z,7.66
2019-05-02T01:51:24.440Z,7.70
2019-05-02T01:54:11.475Z,7.76
2019-05-02T01:56:57.660Z,7.68
2019-05-02T01:59:43.790Z,7.70
2019-05-02T02:02:32.895Z,7.71
2019-05-02T02:05:18.138Z,7.81
2019-05-02T02:08:04.601Z,7.87
2019-05-02T02:10:55.894Z,7.95
2019-05-02T02:13:38.276Z,7.93
2019-05-02T02:16:24.610Z,7.97
2019-05-02T02:19:22.268Z,8.00
2019-05-02T02:22:19.484Z,8.03
2019-05-02T02:25:25.704Z,8.05
2019-05-02T02:28:11.875Z,8.03
2019-05-02T02:31:04.804Z,8.06
2019-05-02T02:33:48.024Z,8.03
2019-05-02T02:36:35.046Z,8.03
2019-05-02T02:39:21.654Z,8.11
2019-05-02T02:42:07.882Z,8.12
2019-05-02T02:45:03.296Z,8.14
2019-05-02T02:47:53.034Z,8.04
2019-05-02T02:50:43.176Z,8.10
2019-05-02T02:53:31.443Z,8.07
2019-05-02T02:56:18.048Z,8.12
2019-05-02T02:59:04.076Z,8.03
2019-05-02T03:01:50.280Z,8.02
2019-05-02T03:04:36.455Z,8.02
2019-05-02T03:07:26.035Z,8.04
2019-05-02T03:10:10.840Z,8.02
2019-05-02T03:13:21.475Z,8.11
2019-05-02T03:16:07.029Z,7.98
2019-05-02T03:18:51.896Z,7.85
2019-05-02T03:21:41.425Z,7.79
2019-05-02T03:24:27.382Z,7.75
2019-05-02T03:27:14.091Z,7.69
2019-05-02T03:30:00.277Z,7.59
2019-05-02T03:33:03.714Z,7.68
2019-05-02T03:35:43.380Z,7.70
2019-05-02T03:38:31.030Z,7.63
2019-05-02T03:41:13.534Z,7.63
2019-05-02T03:44:10.552Z,7.61
2019-05-02T03:46:54.530Z,7.57
2019-05-02T03:49:40.738Z,7.65
2019-05-02T03:52:24.719Z,7.62
2019-05-02T03:55:10.816Z,7.64
2019-05-02T03:57:56.872Z,7.65
2019-05-02T04:00:43.225Z,7.73
2019-05-02T04:03:34.326Z,7.63
2019-05-02T04:06:21.309Z,7.75
2019-05-02T04:09:06.946Z,7.79
2019-05-02T04:11:52.788Z,7.76
2019-05-02T04:14:39.715Z,7.83
2019-05-02T04:17:28.684Z,7.88
2019-05-02T04:20:13.980Z,7.91
2019-05-02T04:23:00.641Z,7.95
2019-05-02T04:25:47.952Z,7.95
2019-05-02T04:28:34.175Z,7.93
2019-05-02T04:31:25.040Z,8.04
2019-05-02T04:34:15.157Z,8.17
2019-05-02T04:37:01.071Z,8.12
2019-05-02T04:39:44.718Z,8.00
2019-05-02T04:42:30.960Z,8.10
2019-05-02T04:45:26.412Z,8.12
2019-05-02T04:48:08.149Z,8.15
2019-05-02T04:51:02.010Z,8.22
2019-05-02T04:53:45.230Z,8.13
2019-05-02T04:56:29.446Z,8.09
2019-05-02T04:59:19.966Z,8.19
2019-05-02T05:02:03.850Z,8.10
2019-05-02T05:04:49.813Z,8.11
2019-05-02T05:07:43.605Z,8.26
2019-05-02T05:10:23.924Z,8.33
2019-05-02T05:13:12.058Z,8.25
2019-05-02T05:15:58.146Z,8.41
2019-05-02T05:18:51.270Z,8.34
2019-05-02T05:21:32.535Z,8.33
2019-05-02T05:24:50.283Z,8.38
2019-05-02T05:27:37.699Z,8.31
2019-05-02T05:30:23.966Z,8.36
2019-05-02T05:33:10.433Z,8.44
2019-05-02T05:35:57.816Z,8.53
2019-05-02T05:38:44.077Z,8.54
2019-05-02T05:41:30.195Z,8.55
2019-05-02T05:44:18.090Z,8.54
2019-05-02T05:47:04.594Z,8.60
2019-05-02T05:49:52.372Z,8.64
2019-05-02T05:52:42.428Z,8.71
2019-05-02T05:55:28.158Z,8.81
2019-05-02T05:58:15.777Z,8.74
2019-05-02T06:01:03.040Z,8.82
2019-05-02T06:03:49.209Z,8.77
2019-05-02T06:06:37.747Z,8.80
2019-05-02T06:09:26.284Z,8.74
2019-05-02T06:12:13.155Z,8.86
2019-05-02T06:15:03.606Z,8.71
2019-05-02T06:17:47.660Z,8.86
2019-05-02T06:20:33.665Z,9.01
2019-05-02T06:23:19.996Z,9.04
2019-05-02T06:26:07.966Z,9.14
2019-05-02T06:28:54.321Z,9.03
2019-05-02T06:31:43.052Z,9.07
2019-05-02T06:34:28.766Z,9.12
2019-05-02T06:37:15.459Z,9.22
2019-05-02T06:40:03.116Z,9.10
2019-05-02T06:42:49.795Z,9.08
2019-05-02T06:45:37.593Z,9.28
2019-05-02T06:48:23.930Z,9.35
2019-05-02T06:51:17.111Z,9.30
2019-05-02T06:53:58.228Z,9.32
2019-05-02T06:56:47.885Z,9.20
2019-05-02T06:59:32.679Z,9.33
2019-05-02T07:02:18.915Z,9.17
2019-05-02T07:05:05.170Z,9.26
2019-05-02T07:07:51.828Z,9.34
2019-05-02T07:10:44.778Z,9.18
2019-05-02T07:13:26.360Z,9.20
2019-05-02T07:16:38.388Z,9.22
2019-05-02T07:19:34.681Z,9.28
2019-05-02T07:22:21.370Z,9.16
2019-05-02T07:25:08.916Z,9.22
2019-05-02T07:27:55.815Z,9.36
2019-05-02T07:30:41.813Z,9.43
2019-05-02T07:33:32.394Z,9.13
2019-05-02T07:36:16.149Z,9.30
2019-05-02T07:39:06.264Z,9.07
2019-05-02T07:41:51.931Z,9.28
2019-05-02T07:44:37.963Z,9.33
2019-05-02T07:47:24.260Z,9.31
2019-05-02T07:50:11.770Z,9.46
2019-05-02T07:52:58.175Z,9.48
2019-05-02T07:55:44.350Z,9.62
2019-05-02T07:58:30.526Z,9.75
2019-05-02T08:01:16.590Z,9.67
2019-05-02T08:04:04.758Z,9.68
2019-05-02T08:06:50.984Z,9.73
2019-05-02T08:09:39.178Z,9.62
2019-05-02T08:12:25.155Z,9.51
2019-05-02T08:15:13.122Z,9.68
2019-05-02T08:17:59.413Z,9.75
2019-05-02T08:20:45.750Z,9.63
2019-05-02T08:23:31.624Z,9.93
2019-05-02T08:26:21.717Z,10.08
2019-05-02T08:29:07.925Z,10.25
2019-05-02T08:31:54.304Z,10.60
2019-05-02T08:34:40.439Z,10.73
2019-05-02T08:37:26.812Z,10.62
2019-05-02T08:40:13.193Z,10.49
2019-05-02T08:43:03.477Z,10.63
2019-05-02T08:45:47.301Z,10.62
2019-05-02T08:48:36.450Z,10.41
2019-05-02T08:51:22.674Z,10.59
2019-05-02T08:54:08.780Z,10.82
2019-05-02T08:56:58.798Z,11.04
2019-05-02T08:59:43.296Z,11.11
2019-05-02T09:02:40.807Z,11.44
2019-05-02T09:05:17.138Z,11.71
2019-05-02T09:08:02.996Z,11.79
2019-05-02T09:10:49.172Z,12.02
2019-05-02T09:13:35.526Z,11.93
2019-05-02T09:16:28.807Z,11.80
2019-05-02T09:19:13.492Z,11.93
2019-05-02T09:21:58.179Z,11.86
2019-05-02T09:24:44.965Z,12.08
2019-05-02T09:27:31.886Z,12.16
2019-05-02T09:30:22.755Z,12.23
2019-05-02T09:33:07.609Z,12.73
2019-05-02T09:35:53.680Z,13.32
2019-05-02T09:38:42.486Z,13.52
2019-05-02T09:41:34.496Z,14.04
2019-05-02T09:44:18.698Z,14.94
2019-05-02T09:47:04.907Z,15.37
2019-05-02T09:50:07.255Z,14.60
2019-05-02T09:52:53.501Z,13.57
2019-05-02T09:55:42.333Z,14.26
2019-05-02T09:58:27.726Z,15.00
2019-05-02T10:01:22.391Z,14.64
2019-05-02T10:04:11.859Z,15.11
2019-05-02T10:06:57.966Z,15.26
2019-05-02T10:09:44.076Z,14.91
2019-05-02T10:12:32.007Z,14.64
2019-05-02T10:15:18.685Z,14.65
2019-05-02T10:18:10.699Z,14.68
2019-05-02T10:20:53.106Z,15.18
2019-05-02T10:23:39.429Z,14.88
2019-05-02T10:26:25.674Z,15.35
2019-05-02T10:29:12.768Z,15.43
2019-05-02T10:31:59.031Z,14.90
2019-05-02T10:34:47.492Z,15.05
2019-05-02T10:37:38.270Z,15.01
2019-05-02T10:40:22.566Z,15.17
2019-05-02T10:43:11.532Z,15.82
2019-05-02T10:46:03.013Z,15.90
2019-05-02T10:48:55.920Z,15.70
2019-05-02T10:51:49.046Z,15.67
2019-05-02T10:54:33.870Z,15.48
2019-05-02T10:57:18.335Z,16.06
2019-05-02T11:00:06.755Z,16.42
2019-05-02T11:03:03.245Z,15.95
2019-05-02T11:05:57.980Z,15.92
2019-05-02T11:08:45.841Z,15.86
2019-05-02T11:11:30.006Z,16.55
2019-05-02T11:14:25.911Z,16.62
2019-05-02T11:17:28.735Z,16.82
2019-05-02T11:20:15.315Z,16.42
2019-05-02T11:23:04.896Z,16.38
2019-05-02T11:25:52.633Z,16.51
2019-05-02T11:28:38.942Z,16.64
2019-05-02T11:31:25.175Z,16.61
2019-05-02T11:34:12.309Z,16.39
2019-05-02T11:36:59.016Z,16.48
2019-05-02T11:39:50.633Z,16.77
2019-05-02T11:42:33.595Z,16.93
2019-05-02T11:45:19.795Z,16.80
2019-05-02T11:48:09.116Z,17.08
2019-05-02T11:50:54.295Z,17.60
2019-05-02T11:53:42.002Z,17.75
2019-05-02T11:56:28.394Z,17.25
2019-05-02T11:59:15.555Z,17.50
2019-05-02T12:02:23.575Z,16.91
2019-05-02T12:05:12.786Z,17.12
2019-05-02T12:08:02.610Z,17.77
2019-05-02T12:10:47.094Z,17.85
2019-05-02T12:13:33.415Z,18.11
2019-05-02T12:16:20.095Z,17.44
2019-05-02T12:19:11.757Z,17.44
2019-05-02T12:21:55.155Z,18.34
2019-05-02T12:24:45.342Z,18.64
2019-05-02T12:27:31.747Z,18.64
2019-05-02T12:30:17.936Z,18.61
2019-05-02T12:33:04.295Z,18.06
2019-05-02T12:35:52.311Z,17.79
2019-05-02T12:38:38.669Z,18.52
2019-05-02T12:41:26.438Z,18.26
2019-05-02T12:44:13.456Z,18.05
2019-05-02T12:46:59.975Z,17.84
2019-05-02T12:49:46.382Z,18.24
2019-05-02T12:52:32.575Z,18.71
2019-05-02T12:55:18.894Z,18.88
2019-05-02T12:58:05.198Z,18.66
2019-05-02T13:00:53.085Z,18.64
2019-05-02T13:04:03.375Z,18.31
2019-05-02T13:06:49.762Z,18.58
2019-05-02T13:09:35.895Z,18.66
2019-05-02T13:12:27.395Z,17.84
2019-05-02T13:15:14.554Z,17.74
2019-05-02T13:18:03.009Z,17.73
2019-05-02T13:20:49.255Z,17.65
2019-05-02T13:23:45.658Z,17.66
2019-05-02T13:26:32.130Z,17.55
2019-05-02T13:29:18.784Z,17.40
2019-05-02T13:32:21.768Z,16.96
2019-05-02T13:35:17.561Z,16.90
2019-05-02T13:38:06.156Z,16.81
2019-05-02T13:40:52.563Z,16.60
2019-05-02T13:43:45.375Z,16.58
2019-05-02T13:46:32.227Z,16.82
2019-05-02T13:49:18.795Z,16.85
2019-05-02T13:52:05.094Z,16.80
2019-05-02T13:54:52.272Z,16.94
2019-05-02T13:57:43.129Z,16.89
2019-05-02T14:00:34.165Z,16.80
2019-05-02T14:03:22.608Z,16.53
2019-05-02T14:06:08.663Z,16.48
2019-05-02T14:09:02.883Z,16.58
2019-05-02T14:11:57.575Z,16.62
2019-05-02T14:14:44.134Z,16.57
2019-05-02T14:17:30.235Z,16.62
2019-05-02T14:20:18.815Z,16.50
2019-05-02T14:23:05.139Z,16.43
2019-05-02T14:25:52.182Z,16.32
2019-05-02T14:28:38.635Z,16.08
2019-05-02T14:31:25.555Z,16.04
2019-05-02T14:34:29.995Z,15.83
2019-05-02T14:37:16.695Z,15.62
2019-05-02T14:40:15.382Z,15.56
2019-05-02T14:43:03.422Z,15.43
2019-05-02T14:45:50.900Z,15.00
2019-05-02T14:48:45.245Z,14.47
2019-05-02T14:51:33.809Z,13.91
2019-05-02T14:54:20.235Z,13.50
2019-05-02T14:57:21.506Z,13.58
2019-05-02T15:00:06.377Z,13.15
2019-05-02T15:02:52.584Z,13.24
2019-05-02T15:05:38.835Z,13.27
2019-05-02T15:08:25.415Z,13.29
2019-05-02T15:11:12.564Z,13.27
2019-05-02T15:13:59.276Z,13.30
2019-05-02T15:16:45.452Z,13.26
2019-05-02T15:19:32.892Z,13.15
2019-05-02T15:22:19.795Z,13.17
2019-05-02T15:25:07.967Z,13.23
2019-05-02T15:27:58.781Z,13.26
2019-05-02T15:30:49.285Z,13.13
2019-05-02T15:33:34.958Z,13.13
2019-05-02T15:36:22.118Z,12.94
2019-05-02T15:41:58.376Z,12.80
2019-05-02T15:44:46.727Z,12.73
2019-05-02T15:47:37.014Z,12.67
2019-05-02T15:50:23.801Z,12.52
2019-05-02T15:53:32.512Z,12.40
2019-05-02T15:56:21.351Z,12.34
2019-05-02T15:59:07.499Z,12.19
2019-05-02T16:01:56.295Z,12.23
2019-05-02T16:04:43.315Z,12.22
2019-05-02T16:07:29.735Z,12.36
2019-05-02T16:10:16.055Z,12.24
2019-05-02T16:13:03.719Z,12.28
2019-05-02T16:15:52.646Z,12.15
2019-05-02T16:18:41.104Z,12.13
2019-05-02T16:21:42.725Z,12.16
2019-05-02T16:24:29.515Z,12.08
2019-05-02T16:27:16.336Z,12.12
2019-05-02T16:30:07.546Z,12.06
2019-05-02T16:32:55.415Z,12.11
2019-05-02T16:35:42.066Z,12.09
2019-05-02T16:38:32.396Z,12.05
2019-05-02T16:41:16.655Z,12.07
2019-05-02T16:44:03.355Z,12.16
2019-05-02T16:46:49.435Z,12.07
2019-05-02T16:49:35.615Z,12.12
2019-05-02T16:52:22.270Z,12.10
2019-05-02T16:55:13.711Z,12.15
2019-05-02T16:58:05.179Z,12.23
2019-05-02T17:00:46.019Z,12.16
2019-05-02T17:03:32.434Z,12.28
2019-05-02T17:06:22.467Z,12.21
2019-05-02T17:09:42.516Z,12.13
2019-05-02T17:12:28.915Z,12.26
2019-05-02T17:15:35.628Z,12.24
2019-05-02T17:18:22.830Z,12.29
2019-05-02T17:21:09.177Z,12.20
2019-05-02T17:23:55.415Z,12.23
2019-05-02T17:26:42.289Z,12.27
2019-05-02T17:29:28.675Z,12.19
2019-05-02T17:32:16.096Z,12.11
2019-05-02T17:35:09.609Z,12.13
2019-05-02T17:37:52.454Z,12.18
2019-05-02T17:40:38.915Z,12.14
2019-05-02T17:43:25.795Z,12.21
2019-05-02T17:46:12.551Z,12.17
2019-05-02T17:49:02.420Z,12.00
2019-05-02T17:52:12.250Z,12.02
2019-05-02T17:54:57.315Z,11.97
2019-05-02T17:57:42.958Z,11.86
2019-05-02T18:00:33.429Z,11.82
2019-05-02T18:03:24.234Z,11.73
2019-05-02T18:06:13.250Z,11.74
2019-05-02T18:08:57.979Z,11.69
2019-05-02T18:11:44.177Z,11.75
2019-05-02T18:14:30.695Z,11.68
2019-05-02T18:17:17.195Z,11.71
2019-05-02T18:20:06.159Z,11.67
2019-05-02T18:22:52.975Z,11.67
2019-05-02T18:25:39.875Z,11.64
2019-05-02T18:28:26.661Z,11.64
2019-05-02T18:31:13.215Z,11.59
2019-05-02T18:34:01.641Z,11.60
2019-05-02T18:36:48.674Z,11.57
2019-05-02T18:39:45.268Z,11.53
2019-05-02T18:42:25.623Z,11.51
2019-05-02T18:45:16.575Z,11.55
2019-05-02T18:48:06.687Z,11.54
2019-05-02T18:50:52.613Z,11.44
2019-05-02T18:53:39.755Z,11.38
2019-05-02T18:56:27.235Z,11.40
2019-05-02T18:59:14.152Z,11.28
2019-05-02T19:02:02.661Z,11.31
2019-05-02T19:04:49.230Z,11.33
2019-05-02T19:07:35.948Z,11.30
2019-05-02T19:10:22.715Z,11.30
2019-05-02T19:13:09.306Z,11.27
2019-05-02T19:15:55.856Z,11.21
2019-05-02T19:18:42.875Z,11.17
2019-05-02T19:21:31.937Z,11.15
2019-05-02T19:24:18.635Z,11.07
2019-05-02T19:27:06.237Z,11.18
2019-05-02T19:29:54.755Z,11.19
2019-05-02T19:32:41.756Z,11.16
2019-05-02T19:35:28.819Z,11.13
2019-05-02T19:38:17.066Z,11.13
2019-05-02T19:41:08.700Z,11.13
2019-05-02T19:43:53.381Z,11.07
2019-05-02T19:46:42.202Z,11.07
2019-05-02T19:49:28.980Z,11.12
2019-05-02T19:52:15.675Z,11.08
2019-05-02T19:55:02.295Z,11.11
2019-05-02T19:57:48.976Z,11.16
2019-05-02T20:00:36.531Z,11.20
2019-05-02T20:03:26.184Z,11.12
2019-05-02T20:06:13.003Z,11.13
2019-05-02T20:09:06.761Z,11.08
2019-05-02T20:11:48.575Z,11.02
2019-05-02T20:14:38.150Z,10.97
2019-05-02T20:17:24.164Z,10.90
2019-05-02T20:20:35.914Z,10.88
2019-05-02T20:23:28.588Z,10.84
2019-05-02T20:26:15.248Z,10.80
2019-05-02T20:28:59.096Z,10.81
2019-05-02T20:31:45.555Z,10.73
2019-05-02T20:34:32.520Z,10.81
2019-05-02T20:37:22.155Z,10.81
2019-05-02T20:40:23.415Z,10.76
2019-05-02T20:43:09.735Z,10.76
2019-05-02T20:45:56.435Z,10.75
2019-05-02T20:48:42.555Z,10.71
2019-05-02T20:51:28.638Z,10.69
2019-05-02T20:54:14.806Z,10.67
2019-05-02T20:57:02.450Z,10.62
2019-05-02T20:59:49.056Z,10.60
2019-05-02T21:02:35.296Z,10.55
2019-05-02T21:05:24.526Z,10.51
2019-05-02T21:08:26.416Z,10.46
2019-05-02T21:11:12.777Z,10.36
2019-05-02T21:13:59.237Z,10.35
2019-05-02T21:16:45.695Z,10.36
2019-05-02T21:19:32.353Z,10.37
2019-05-02T21:22:22.716Z,10.39
2019-05-02T21:25:09.314Z,10.38
2019-05-02T21:27:56.735Z,10.35
2019-05-02T21:30:43.076Z,10.33
2019-05-02T21:33:36.115Z,10.25
2019-05-02T21:36:22.789Z,10.29
2019-05-02T21:39:12.005Z,10.27
2019-05-02T21:41:58.155Z,10.30
2019-05-02T21:44:44.815Z,10.21
2019-05-02T21:47:31.879Z,10.16
2019-05-02T21:50:43.894Z,10.05
2019-05-02T21:53:56.036Z,9.97
2019-05-02T21:56:46.390Z,9.86
2019-05-02T21:59:34.875Z,9.65
2019-05-02T22:02:22.666Z,9.60
2019-05-02T22:05:09.201Z,9.60
2019-05-02T22:07:55.280Z,9.65
2019-05-02T22:10:42.671Z,9.58
2019-05-02T22:13:29.150Z,9.61
2019-05-02T22:16:15.173Z,9.59
2019-05-02T22:19:02.861Z,9.46
2019-05-02T22:21:49.406Z,9.49
2019-05-02T22:24:35.528Z,9.51
2019-05-02T22:27:21.923Z,9.53
2019-05-02T22:30:08.191Z,9.44
2019-05-02T22:32:54.320Z,9.42
2019-05-02T22:35:43.160Z,9.41
2019-05-02T22:38:39.140Z,9.43
2019-05-02T22:41:25.277Z,9.40
2019-05-02T22:44:12.482Z,9.38
2019-05-02T22:46:58.786Z,9.27
2019-05-02T22:49:44.940Z,9.24
2019-05-02T22:52:32.239Z,9.17
2019-05-02T22:55:18.560Z,9.24
2019-05-02T22:58:04.968Z,9.18
2019-05-02T23:00:52.240Z,9.29
2019-05-02T23:03:38.420Z,9.24
2019-05-02T23:06:24.675Z,9.14
2019-05-02T23:09:12.725Z,9.09
2019-05-02T23:11:58.840Z,9.13
2019-05-02T23:14:44.920Z,9.24
2019-05-02T23:17:32.160Z,9.26
2019-05-02T23:20:18.540Z,9.26
2019-05-02T23:23:04.646Z,9.15
2019-05-02T23:26:16.164Z,9.09
2019-05-02T23:29:02.808Z,9.08
2019-05-02T23:31:49.240Z,9.00
2019-05-02T23:34:35.305Z,8.98
2019-05-02T23:37:21.525Z,8.83
2019-05-02T23:40:07.800Z,8.83
2019-05-02T23:42:53.771Z,8.79
2019-05-02T23:45:42.177Z,8.76
2019-05-02T23:48:28.362Z,8.83
2019-05-02T23:51:14.410Z,8.81
2019-05-02T23:54:02.056Z,8.83
2019-05-02T23:56:48.480Z,8.75
2019-05-02T23:59:34.528Z,8.60
